Time;durP1;ratioP1;P1;durP2;ratioP2;P2;SDS_P1;SDS_P2;PMS_P1;PMS_P2;Temp;Humidity;BMP_temperature;BMP_pressure;BME280_temperature;BME280_humidity;BME280_pressure;Samples;Min_cycle;Max_cycle;Signal;HPM_P1;HPM_P2
2021/08/30 00:01:34;;;;;;;9.20;8.30;;;14.00;99.90;;;;;;5010949;28;20170;-60
2021/08/30 00:03:59;;;;;;;8.70;8.00;;;14.00;99.90;;;;;;5010749;28;20421;-60
2021/08/30 00:06:25;;;;;;;12.10;8.20;;;14.00;99.90;;;;;;5010704;28;20441;-61
2021/08/30 00:08:50;;;;;;;9.50;8.60;;;14.10;99.90;;;;;;5010661;28;20700;-61
2021/08/30 00:11:17;;;;;;;10.00;9.07;;;14.10;99.90;;;;;;5010656;28;20175;-61
2021/08/30 00:13:44;;;;;;;9.73;8.97;;;14.20;99.90;;;;;;5010905;28;20636;-61
2021/08/30 00:16:09;;;;;;;10.53;9.63;;;14.20;99.90;;;;;;5010283;28;20513;-61
2021/08/30 00:18:35;;;;;;;10.77;9.77;;;14.10;99.90;;;;;;5010296;28;21107;-61
2021/08/30 00:21:00;;;;;;;10.20;9.20;;;14.10;99.90;;;;;;5010396;28;20254;-61
2021/08/30 00:23:26;;;;;;;11.90;10.70;;;14.10;99.90;;;;;;5010430;28;20171;-61
2021/08/30 00:25:52;;;;;;;11.23;10.17;;;14.10;99.90;;;;;;5010853;28;20177;-61
2021/08/30 00:28:17;;;;;;;10.70;9.53;;;14.10;99.90;;;;;;5009874;28;20509;-61
2021/08/30 00:30:43;;;;;;;11.70;10.60;;;14.20;99.90;;;;;;5010093;28;20182;-61
2021/08/30 00:33:08;;;;;;;11.10;9.90;;;14.20;99.90;;;;;;5010181;28;20171;-61
2021/08/30 00:35:34;;;;;;;9.47;8.60;;;14.20;99.90;;;;;;5010251;28;20683;-61
2021/08/30 00:37:59;;;;;;;11.40;10.40;;;14.30;99.90;;;;;;5009882;28;20206;-61
2021/08/30 00:40:25;;;;;;;10.00;9.00;;;14.30;99.90;;;;;;5009733;28;20179;-61
2021/08/30 00:42:50;;;;;;;10.43;9.43;;;14.30;99.90;;;;;;5009880;28;20642;-61
2021/08/30 00:45:16;;;;;;;10.70;9.80;;;14.30;99.90;;;;;;5009985;28;20648;-62
2021/08/30 00:47:43;;;;;;;10.47;9.53;;;14.40;99.90;;;;;;5010128;28;20198;-61
2021/08/30 00:50:12;;;;;;;9.87;9.03;;;14.30;99.90;;;;;;5009659;28;20174;-62
2021/08/30 00:52:39;;;;;;;10.10;9.10;;;14.30;99.90;;;;;;5010036;28;20464;-60
2021/08/30 00:55:06;;;;;;;10.70;9.80;;;14.30;99.90;;;;;;5009656;28;20422;-61
2021/08/30 00:57:32;;;;;;;10.53;9.40;;;14.40;99.90;;;;;;5009528;28;20891;-62
2021/08/30 00:59:57;;;;;;;10.27;9.37;;;14.40;99.90;;;;;;5008751;28;20417;-61
2021/08/30 01:02:23;;;;;;;11.23;10.30;;;14.40;99.90;;;;;;5009520;28;20175;-61
2021/08/30 01:04:49;;;;;;;11.03;9.90;;;14.40;99.90;;;;;;5009610;28;20166;-61
2021/08/30 01:07:35;;;;;;;10.47;9.67;;;14.30;99.90;;;;;;5009553;28;20803;-62
2021/08/30 01:10:06;;;;;;;13.00;9.37;;;14.30;99.90;;;;;;5009340;28;20460;-61
2021/08/30 01:12:38;;;;;;;12.20;11.10;;;14.40;99.90;;;;;;5009417;28;20977;-61
2021/08/30 01:15:10;;;;;;;10.97;10.00;;;14.30;99.90;;;;;;5009450;28;20511;-62
2021/08/30 01:17:37;;;;;;;11.33;10.43;;;14.40;99.90;;;;;;5009250;28;20473;-62
2021/08/30 01:20:40;;;;;;;11.23;10.20;;;14.40;99.90;;;;;;5009184;28;20827;-60
2021/08/30 01:23:07;;;;;;;11.87;10.87;;;14.50;99.90;;;;;;5009371;28;20421;-62
2021/08/30 01:25:34;;;;;;;11.67;10.63;;;14.50;99.90;;;;;;5009186;28;21134;-61
2021/08/30 01:28:00;;;;;;;11.87;10.87;;;14.40;99.90;;;;;;5009158;28;20913;-61
2021/08/30 01:30:27;;;;;;;11.37;10.30;;;14.50;99.90;;;;;;5008968;28;20468;-60
2021/08/30 01:32:55;;;;;;;10.57;9.77;;;14.50;99.90;;;;;;5009063;28;20190;-61
2021/08/30 01:35:25;;;;;;;12.00;11.00;;;14.50;99.90;;;;;;5009125;28;20938;-62
2021/08/30 01:37:55;;;;;;;11.93;10.70;;;14.50;99.90;;;;;;5008889;28;21004;-62
2021/08/30 01:40:23;;;;;;;12.17;11.17;;;14.60;99.90;;;;;;5008850;28;20902;-61
2021/08/30 01:42:52;;;;;;;11.00;10.00;;;14.60;99.90;;;;;;5009109;28;20433;-62
2021/08/30 01:45:22;;;;;;;11.73;10.83;;;14.60;99.90;;;;;;5008967;28;20959;-61
2021/08/30 01:47:49;;;;;;;12.17;11.07;;;14.50;99.90;;;;;;5009175;28;20480;-61
2021/08/30 01:50:17;;;;;;;11.23;10.27;;;14.50;99.90;;;;;;5008645;28;20813;-62
2021/08/30 01:52:44;;;;;;;11.60;10.70;;;14.50;99.90;;;;;;5009116;28;20431;-62
2021/08/30 02:00:51;;;;;;;11.03;10.13;;;14.50;99.90;;;;;;5008725;28;20487;-61
2021/08/30 02:03:19;;;;;;;10.63;9.53;;;14.50;99.90;;;;;;5008847;28;20472;-61
2021/08/30 02:06:10;;;;;;;12.60;11.60;;;14.40;99.90;;;;;;5008816;28;21002;-62
2021/08/30 02:08:35;;;;;;;12.30;11.20;;;14.40;99.90;;;;;;5008219;28;20855;-61
2021/08/30 02:11:07;;;;;;;12.80;11.60;;;14.30;99.90;;;;;;5008802;28;20417;-61
2021/08/30 02:13:33;;;;;;;10.53;9.73;;;14.40;99.90;;;;;;5012728;28;20261;-62
2021/08/30 02:16:01;;;;;;;12.73;11.63;;;14.40;99.90;;;;;;5012446;28;20837;-62
2021/08/30 02:18:51;;;;;;;11.77;10.87;;;14.40;99.90;;;;;;5012774;28;20469;-61
2021/08/30 02:21:40;;;;;;;10.87;9.93;;;14.50;99.90;;;;;;5012868;28;20433;-62
2021/08/30 02:24:33;;;;;;;10.77;9.97;;;14.50;99.90;;;;;;5012577;28;20433;-62
2021/08/30 02:27:09;;;;;;;11.10;10.10;;;14.40;99.90;;;;;;5012667;28;20449;-61
2021/08/30 02:29:52;;;;;;;11.37;10.43;;;14.50;99.90;;;;;;5012412;28;21215;-62
2021/08/30 02:32:19;;;;;;;10.40;9.60;;;14.50;99.90;;;;;;5012421;28;20414;-61
2021/08/30 02:34:48;;;;;;;10.83;10.03;;;14.60;99.90;;;;;;5012397;28;20425;-62
2021/08/30 02:37:15;;;;;;;12.60;11.50;;;14.50;99.90;;;;;;5012637;28;20468;-61
2021/08/30 02:39:47;;;;;;;11.60;10.67;;;14.50;99.90;;;;;;5011842;28;20430;-62
2021/08/30 02:42:14;;;;;;;11.97;10.83;;;14.40;99.90;;;;;;5012359;28;20453;-61
2021/08/30 02:44:40;;;;;;;12.77;11.67;;;14.30;99.90;;;;;;5012135;28;20472;-61
2021/08/30 02:47:06;;;;;;;12.13;11.03;;;14.30;99.90;;;;;;5010397;28;20449;-62
2021/08/30 02:49:31;;;;;;;12.80;11.70;;;14.30;99.90;;;;;;5011729;28;20426;-62
2021/08/30 02:52:04;;;;;;;10.60;9.80;;;14.30;99.90;;;;;;5011947;28;20553;-62
2021/08/30 02:54:31;;;;;;;12.30;11.30;;;14.20;99.90;;;;;;5011952;28;20182;-62
2021/08/30 02:56:57;;;;;;;11.17;10.20;;;14.20;99.90;;;;;;5011673;28;20454;-62
2021/08/30 02:59:24;;;;;;;9.13;8.33;;;14.20;99.90;;;;;;5011465;28;20426;-61
2021/08/30 03:01:50;;;;;;;10.07;9.27;;;14.10;99.90;;;;;;5011698;28;20425;-62
2021/08/30 03:04:16;;;;;;;10.73;9.73;;;14.10;99.90;;;;;;5011910;28;20461;-62
2021/08/30 03:06:42;;;;;;;10.63;9.63;;;14.10;99.90;;;;;;5011899;28;20951;-62
2021/08/30 03:09:08;;;;;;;11.70;10.70;;;14.10;99.90;;;;;;5011333;28;20477;-61
2021/08/30 03:11:37;;;;;;;9.30;8.40;;;14.00;99.90;;;;;;5011552;28;20461;-62
2021/08/30 03:14:04;;;;;;;10.43;9.27;;;14.00;99.90;;;;;;5011580;28;20262;-62
2021/08/30 03:16:31;;;;;;;10.67;9.60;;;14.00;99.90;;;;;;5011512;28;20473;-62
2021/08/30 03:18:58;;;;;;;10.57;9.57;;;14.00;99.90;;;;;;5010992;28;20496;-62
2021/08/30 03:21:28;;;;;;;9.23;8.33;;;13.90;99.90;;;;;;5011300;28;20417;-61
2021/08/30 03:23:55;;;;;;;9.40;8.60;;;13.90;99.90;;;;;;5010928;28;20429;-62
2021/08/30 03:26:23;;;;;;;9.30;8.50;;;13.90;99.90;;;;;;5011428;28;20488;-62
2021/08/30 03:28:50;;;;;;;10.67;9.70;;;13.90;99.90;;;;;;5011132;28;20923;-62
2021/08/30 03:31:16;;;;;;;9.13;8.33;;;14.00;99.90;;;;;;5011251;28;20435;-62
2021/08/30 03:33:42;;;;;;;9.20;8.40;;;13.90;99.90;;;;;;5011157;28;20430;-62
2021/08/30 03:36:10;;;;;;;7.97;7.37;;;13.90;99.90;;;;;;5011245;28;20715;-62
2021/08/30 03:38:36;;;;;;;8.40;7.67;;;13.90;99.90;;;;;;5010919;28;20466;-61
2021/08/30 03:41:02;;;;;;;8.33;7.73;;;14.00;99.90;;;;;;5011119;28;20907;-62
2021/08/30 03:43:29;;;;;;;7.73;7.13;;;14.00;99.90;;;;;;5011195;28;20885;-61
2021/08/30 03:45:55;;;;;;;9.50;8.20;;;13.90;99.90;;;;;;5011002;28;20417;-62
2021/08/30 03:48:23;;;;;;;8.63;7.80;;;14.00;99.90;;;;;;5010835;28;20453;-62
2021/08/30 03:50:50;;;;;;;8.17;7.57;;;14.00;99.90;;;;;;5011035;28;20445;-62
2021/08/30 03:53:19;;;;;;;8.10;7.50;;;14.00;99.90;;;;;;5010886;28;20480;-61
2021/08/30 03:55:46;;;;;;;9.07;8.37;;;14.00;99.90;;;;;;5010678;28;20465;-61
2021/08/30 03:58:13;;;;;;;9.37;8.57;;;14.00;99.90;;;;;;5010632;28;20473;-61
2021/08/30 04:00:40;;;;;;;9.37;8.57;;;14.00;99.90;;;;;;5010627;28;20457;-61
2021/08/30 04:03:09;;;;;;;9.23;8.43;;;13.90;99.90;;;;;;5010641;28;20531;-62
2021/08/30 04:05:35;;;;;;;10.93;9.90;;;13.90;99.90;;;;;;5010620;28;20422;-62
2021/08/30 04:08:01;;;;;;;11.33;10.33;;;13.90;99.90;;;;;;5010360;28;20453;-60
2021/08/30 04:10:29;;;;;;;11.60;10.03;;;13.90;99.90;;;;;;5010294;28;20977;-61
2021/08/30 04:12:57;;;;;;;10.73;9.73;;;14.00;99.90;;;;;;5010514;28;20187;-62
2021/08/30 04:15:22;;;;;;;10.67;9.67;;;14.00;99.90;;;;;;5008802;28;20436;-62
2021/08/30 04:17:48;;;;;;;10.60;9.40;;;14.00;99.90;;;;;;5060494;23;20492;-62
2021/08/30 04:20:14;;;;;;;10.43;9.30;;;14.00;99.90;;;;;;5029275;28;20177;-61
2021/08/30 04:22:39;;;;;;;10.80;9.80;;;14.00;99.90;;;;;;5030041;28;20742;-61
2021/08/30 04:25:05;;;;;;;11.30;10.23;;;14.00;99.90;;;;;;5030253;28;20170;-61
2021/08/30 04:27:31;;;;;;;11.90;10.80;;;14.00;99.90;;;;;;5029957;28;20202;-61
2021/08/30 04:29:56;;;;;;;10.87;9.77;;;14.00;99.90;;;;;;5029529;28;20428;-59
2021/08/30 04:32:22;;;;;;;12.93;10.40;;;14.00;99.90;;;;;;5029921;28;20253;-59
2021/08/30 04:34:47;;;;;;;14.77;10.50;;;14.00;99.90;;;;;;5029051;28;20683;-60
2021/08/30 04:37:13;;;;;;;13.50;10.50;;;14.00;99.90;;;;;;5029534;28;20277;-59
2021/08/30 04:39:38;;;;;;;15.17;12.73;;;14.00;99.90;;;;;;5029631;28;20262;-61
2021/08/30 04:42:05;;;;;;;15.53;13.10;;;14.00;99.90;;;;;;5029647;28;20174;-61
2021/08/30 04:44:32;;;;;;;12.80;11.47;;;13.90;99.90;;;;;;5029646;28;20181;-60
2021/08/30 04:46:59;;;;;;;14.57;13.03;;;13.90;99.90;;;;;;5029682;28;20528;-59
2021/08/30 04:49:25;;;;;;;16.10;13.53;;;14.00;99.90;;;;;;5029654;28;20429;-61
2021/08/30 04:51:50;;;;;;;13.97;12.57;;;14.00;99.90;;;;;;5029325;28;20450;-59
2021/08/30 04:54:19;;;;;;;13.93;12.50;;;14.00;99.90;;;;;;5029329;28;20190;-60
2021/08/30 04:56:45;;;;;;;17.57;15.03;;;14.00;99.90;;;;;;5029617;28;20280;-61
2021/08/30 04:59:10;;;;;;;15.50;13.90;;;14.00;99.90;;;;;;5029055;28;20888;-61
2021/08/30 05:01:36;;;;;;;15.33;13.70;;;14.00;99.90;;;;;;5029406;28;20170;-61
2021/08/30 05:04:01;;;;;;;17.60;14.50;;;14.00;99.90;;;;;;5027980;28;20184;-61
2021/08/30 05:06:27;;;;;;;17.00;15.20;;;14.10;99.90;;;;;;5029079;28;20286;-62
2021/08/30 05:08:52;;;;;;;15.27;13.73;;;14.00;99.90;;;;;;5029144;28;20274;-62
2021/08/30 05:11:18;;;;;;;16.50;13.50;;;14.00;99.90;;;;;;5029215;28;20260;-61
2021/08/30 05:13:43;;;;;;;13.53;11.97;;;14.00;99.90;;;;;;5029119;28;20178;-60
2021/08/30 05:16:09;;;;;;;12.40;11.10;;;14.00;99.90;;;;;;5029111;28;20178;-60
2021/08/30 05:18:34;;;;;;;12.10;9.93;;;14.10;99.90;;;;;;5028921;28;20715;-60
2021/08/30 05:21:00;;;;;;;11.67;10.47;;;14.00;99.90;;;;;;5029404;28;20166;-60
2021/08/30 05:23:25;;;;;;;12.13;10.83;;;14.10;99.90;;;;;;5029031;28;20648;-60
2021/08/30 05:25:51;;;;;;;13.47;11.80;;;14.10;99.90;;;;;;5029063;28;20206;-60
2021/08/30 05:28:16;;;;;;;13.93;12.63;;;14.00;99.90;;;;;;5028889;28;20630;-61
2021/08/30 05:30:42;;;;;;;16.70;13.97;;;14.00;99.90;;;;;;5028891;28;20615;-60
2021/08/30 05:33:07;;;;;;;13.53;12.23;;;14.10;99.90;;;;;;5028879;28;20182;-61
2021/08/30 05:35:33;;;;;;;15.57;13.40;;;14.10;99.90;;;;;;5029046;28;20264;-62
2021/08/30 05:37:59;;;;;;;13.30;11.70;;;14.20;99.90;;;;;;5028626;28;20206;-60
2021/08/30 05:40:24;;;;;;;17.30;15.40;;;14.20;99.90;;;;;;5028652;28;20220;-60
2021/08/30 05:42:50;;;;;;;14.87;13.27;;;14.20;99.90;;;;;;5028918;28;20591;-58
2021/08/30 05:45:15;;;;;;;17.77;15.70;;;14.10;99.90;;;;;;5028518;28;20174;-60
2021/08/30 05:47:42;;;;;;;14.60;13.10;;;14.20;99.90;;;;;;5028637;28;20198;-59
2021/08/30 05:50:08;;;;;;;16.93;15.13;;;14.20;99.90;;;;;;5028188;28;20204;-59
2021/08/30 05:52:33;;;;;;;13.23;11.83;;;14.20;99.90;;;;;;5028805;28;20416;-60
2021/08/30 05:54:59;;;;;;;13.27;11.97;;;14.20;99.90;;;;;;5028930;28;20427;-60
2021/08/30 05:57:24;;;;;;;13.67;11.87;;;14.20;99.90;;;;;;5028406;28;20247;-61
2021/08/30 05:59:50;;;;;;;11.73;10.57;;;14.30;99.90;;;;;;5028325;28;20489;-60
2021/08/30 06:02:15;;;;;;;12.43;10.83;;;14.30;99.90;;;;;;5028524;28;20239;-59
2021/08/30 06:04:41;;;;;;;14.13;12.50;;;14.30;99.90;;;;;;5028634;28;20181;-60
2021/08/30 06:07:07;;;;;;;14.50;13.00;;;14.30;99.90;;;;;;5028418;28;20218;-60
2021/08/30 06:09:33;;;;;;;17.93;13.57;;;14.30;99.90;;;;;;5028266;28;20171;-60
2021/08/30 06:11:58;;;;;;;15.57;14.00;;;14.30;99.90;;;;;;5028557;28;20213;-61
2021/08/30 06:14:24;;;;;;;17.17;15.37;;;14.30;99.90;;;;;;5028565;28;20203;-60
2021/08/30 06:16:49;;;;;;;17.40;14.00;;;14.30;99.90;;;;;;5028462;28;20296;-60
2021/08/30 06:19:15;;;;;;;14.20;12.80;;;14.30;99.90;;;;;;5027973;28;20213;-60
2021/08/30 06:21:40;;;;;;;14.93;13.33;;;14.30;99.90;;;;;;5028387;28;20821;-60
2021/08/30 06:24:06;;;;;;;16.40;14.53;;;14.30;99.90;;;;;;5028375;28;20167;-60
2021/08/30 06:26:33;;;;;;;14.10;12.70;;;14.30;99.90;;;;;;5028669;28;20655;-62
2021/08/30 06:28:59;;;;;;;14.97;13.47;;;14.40;99.90;;;;;;5028123;28;20515;-61
2021/08/30 06:31:25;;;;;;;15.33;13.73;;;14.50;99.90;;;;;;5028252;28;20432;-59
2021/08/30 06:33:51;;;;;;;16.60;14.90;;;14.50;99.90;;;;;;5028202;28;20421;-60
2021/08/30 06:36:16;;;;;;;15.70;14.07;;;14.50;99.90;;;;;;5028325;28;20564;-61
2021/08/30 06:38:42;;;;;;;16.23;14.60;;;14.50;99.90;;;;;;5028067;28;20460;-61
2021/08/30 06:41:08;;;;;;;15.20;13.63;;;14.70;99.90;;;;;;5028289;28;20174;-58
2021/08/30 06:43:33;;;;;;;15.27;13.70;;;14.80;99.90;;;;;;5028177;28;20273;-60
2021/08/30 06:45:59;;;;;;;13.90;12.50;;;14.90;99.90;;;;;;5028134;28;20662;-60
2021/08/30 06:48:24;;;;;;;15.33;13.73;;;14.90;99.90;;;;;;5028055;28;20683;-61
2021/08/30 06:50:50;;;;;;;14.67;13.17;;;15.00;99.90;;;;;;5028082;28;20197;-58
2021/08/30 06:53:15;;;;;;;17.33;15.67;;;15.00;99.90;;;;;;5028160;28;20174;-61
2021/08/30 06:55:41;;;;;;;15.57;14.07;;;15.20;99.90;;;;;;5026656;28;20229;-60
2021/08/30 06:58:06;;;;;;;14.77;13.30;;;15.40;99.90;;;;;;5029980;28;20202;-61
2021/08/30 07:00:32;;;;;;;14.90;13.40;;;15.40;99.90;;;;;;5031553;28;20185;-59
2021/08/30 07:02:57;;;;;;;13.63;12.23;;;15.30;99.90;;;;;;5031493;28;20174;-61
2021/08/30 07:05:23;;;;;;;14.93;13.63;;;15.40;99.90;;;;;;5031392;28;20182;-61
2021/08/30 07:07:48;;;;;;;14.97;12.70;;;15.40;99.90;;;;;;5031469;28;20209;-61
2021/08/30 07:10:14;;;;;;;14.60;12.67;;;15.40;99.90;;;;;;5031617;28;20212;-60
2021/08/30 07:12:40;;;;;;;13.30;11.90;;;15.60;99.90;;;;;;5031652;28;20547;-62
2021/08/30 07:15:06;;;;;;;12.60;11.40;;;15.70;99.90;;;;;;5031267;28;20439;-62
2021/08/30 07:17:32;;;;;;;13.47;11.53;;;15.90;99.90;;;;;;5031075;28;20293;-59
2021/08/30 07:19:58;;;;;;;14.20;11.87;;;15.80;99.90;;;;;;5030833;28;20808;-61
2021/08/30 07:22:23;;;;;;;12.77;11.50;;;15.80;99.90;;;;;;5031295;28;20435;-61
2021/08/30 07:24:49;;;;;;;13.00;11.80;;;16.00;99.90;;;;;;5031586;28;20170;-62
2021/08/30 07:27:15;;;;;;;13.47;12.17;;;16.20;99.90;;;;;;5031343;28;20568;-61
2021/08/30 07:29:40;;;;;;;13.53;12.23;;;16.40;99.90;;;;;;5030807;28;20741;-61
2021/08/30 07:32:06;;;;;;;13.60;12.40;;;16.60;99.90;;;;;;5030968;28;20273;-60
2021/08/30 07:34:32;;;;;;;13.33;11.97;;;16.80;99.90;;;;;;5031015;28;20745;-61
2021/08/30 07:36:57;;;;;;;11.80;10.60;;;16.60;99.90;;;;;;5030852;28;20524;-61
2021/08/30 07:39:23;;;;;;;12.23;10.93;;;16.50;99.90;;;;;;5029302;28;20602;-61
2021/08/30 07:41:50;;;;;;;13.87;10.20;;;16.70;99.90;;;;;;5030896;28;20585;-62
2021/08/30 07:44:17;;;;;;;11.70;10.70;;;17.00;99.90;;;;;;5030917;28;20483;-61
2021/08/30 07:46:42;;;;;;;11.77;10.60;;;17.00;99.90;;;;;;5030737;28;20972;-61
2021/08/30 07:49:10;;;;;;;11.70;10.70;;;17.00;99.90;;;;;;5030351;28;20433;-60
2021/08/30 07:51:36;;;;;;;12.20;11.00;;;16.70;99.90;;;;;;5030787;28;20178;-60
2021/08/30 07:54:02;;;;;;;11.00;10.10;;;16.50;99.90;;;;;;5030583;28;20429;-60
2021/08/30 07:56:27;;;;;;;12.40;11.20;;;16.30;99.90;;;;;;5030669;28;20444;-62
2021/08/30 07:58:53;;;;;;;12.37;11.27;;;16.40;99.90;;;;;;5030298;28;20205;-60
2021/08/30 08:01:18;;;;;;;11.33;10.43;;;16.50;99.90;;;;;;5030344;28;20646;-61
2021/08/30 08:03:44;;;;;;;10.83;9.93;;;16.50;99.90;;;;;;5030350;28;20193;-62
2021/08/30 08:06:09;;;;;;;12.10;10.07;;;16.50;99.90;;;;;;5030498;28;20167;-61
2021/08/30 08:08:35;;;;;;;11.73;10.73;;;16.30;99.90;;;;;;5030217;28;20198;-61
2021/08/30 08:11:00;;;;;;;10.93;9.93;;;16.20;99.90;;;;;;5030088;28;20175;-63
2021/08/30 08:13:29;;;;;;;12.07;10.87;;;16.20;99.90;;;;;;5030251;28;20659;-59
2021/08/30 08:15:55;;;;;;;10.77;9.77;;;16.10;99.90;;;;;;5030126;28;20694;-60
2021/08/30 08:18:20;;;;;;;11.87;10.80;;;16.10;99.90;;;;;;5029941;28;20539;-60
2021/08/30 08:20:46;;;;;;;11.17;10.07;;;16.10;99.90;;;;;;5030123;28;20211;-62
2021/08/30 08:23:11;;;;;;;11.70;10.53;;;16.00;99.90;;;;;;5030029;28;20174;-60
2021/08/30 08:25:37;;;;;;;10.77;9.77;;;16.00;99.90;;;;;;5030013;28;20185;-61
2021/08/30 08:28:04;;;;;;;11.27;10.20;;;16.00;99.90;;;;;;5029933;28;20190;-62
2021/08/30 08:30:31;;;;;;;11.40;10.30;;;16.20;99.90;;;;;;5029743;28;20325;-60
2021/08/30 08:32:57;;;;;;;10.37;9.37;;;16.20;99.90;;;;;;5029823;28;20425;-61
2021/08/30 08:35:22;;;;;;;9.97;9.07;;;16.30;99.90;;;;;;5029720;28;20425;-61
2021/08/30 08:37:48;;;;;;;10.27;9.40;;;16.20;99.90;;;;;;5029975;28;20502;-60
2021/08/30 08:40:15;;;;;;;9.90;9.00;;;16.20;99.90;;;;;;5030130;28;20189;-62
2021/08/30 08:42:41;;;;;;;12.13;10.90;;;16.20;99.90;;;;;;5029822;28;20195;-61
2021/08/30 08:45:08;;;;;;;10.90;10.00;;;16.30;99.90;;;;;;5029444;28;20961;-59
2021/08/30 08:47:35;;;;;;;10.00;9.10;;;16.20;99.90;;;;;;5029352;28;20436;-62
2021/08/30 08:50:01;;;;;;;9.70;8.90;;;16.30;99.90;;;;;;5027894;28;20428;-62
2021/08/30 08:52:27;;;;;;;8.57;7.87;;;16.60;99.90;;;;;;5029650;28;20421;-60
2021/08/30 08:54:52;;;;;;;8.70;7.90;;;16.80;99.90;;;;;;5029891;28;20178;-62
2021/08/30 08:57:18;;;;;;;8.67;7.93;;;16.80;99.90;;;;;;5029325;28;20280;-61
2021/08/30 09:00:01;;;;;;;10.10;9.30;;;16.80;99.90;;;;;;5029075;28;20185;-61
2021/08/30 09:02:29;;;;;;;9.50;8.70;;;16.60;99.90;;;;;;5029431;28;20228;-61
2021/08/30 09:04:55;;;;;;;10.00;8.87;;;16.40;99.90;;;;;;5029519;28;20428;-62
2021/08/30 09:07:41;;;;;;;9.60;8.63;;;16.30;99.90;;;;;;5029133;28;20449;-61
2021/08/30 09:10:20;;;;;;;8.53;7.80;;;16.20;99.90;;;;;;5028669;28;20424;-61
2021/08/30 09:12:47;;;;;;;8.90;8.10;;;16.10;99.90;;;;;;5029280;28;20424;-61
2021/08/30 09:15:14;;;;;;;8.23;7.43;;;16.50;99.90;;;;;;5029324;28;20425;-62
2021/08/30 09:18:00;;;;;;;7.83;7.13;;;17.10;99.90;;;;;;5028761;28;20880;-62
2021/08/30 09:20:29;;;;;;;8.13;7.53;;;18.30;99.90;;;;;;5027913;28;20475;-62
2021/08/30 09:22:54;;;;;;;7.33;6.73;;;19.40;99.90;;;;;;5027581;28;21004;-61
2021/08/30 09:25:21;;;;;;;7.27;6.67;;;19.70;99.90;;;;;;5029020;28;20425;-62
2021/08/30 09:27:51;;;;;;;8.97;8.10;;;20.00;99.90;;;;;;5029065;28;20194;-62
2021/08/30 09:30:23;;;;;;;8.10;7.40;;;20.00;99.90;;;;;;5028551;28;20499;-60
2021/08/30 09:32:49;;;;;;;10.47;9.43;;;19.90;99.90;;;;;;5029144;28;20417;-62
2021/08/30 09:35:15;;;;;;;10.10;9.07;;;20.30;99.90;;;;;;5028755;28;20766;-62
2021/08/30 09:37:43;;;;;;;9.60;8.70;;;20.20;99.90;;;;;;5028833;28;20362;-62
2021/08/30 09:40:15;;;;;;;9.90;9.10;;;20.50;99.90;;;;;;5028456;28;20439;-62
2021/08/30 09:42:49;;;;;;;11.33;10.20;;;20.60;99.90;;;;;;5028757;28;20445;-61
2021/08/30 09:45:17;;;;;;;12.30;11.20;;;20.10;99.90;;;;;;5029230;28;20423;-63
2021/08/30 09:47:57;;;;;;;10.63;9.57;;;20.40;99.90;;;;;;5028753;28;20441;-62
2021/08/30 09:50:32;;;;;;;16.20;11.00;;;20.20;99.90;;;;;;5028899;28;20930;-62
2021/08/30 09:52:59;;;;;;;11.97;10.80;;;20.10;99.90;;;;;;5028668;28;20886;-61
2021/08/30 09:55:26;;;;;;;11.77;10.67;;;19.70;99.90;;;;;;5028468;28;20429;-62
2021/08/30 09:57:52;;;;;;;10.60;9.70;;;19.60;99.90;;;;;;5028499;28;20464;-62
2021/08/30 10:00:19;;;;;;;23.23;20.63;;;19.00;99.90;;;;;;5028460;28;20474;-61
2021/08/30 10:02:53;;;;;;;13.77;12.47;;;18.80;99.90;;;;;;5028566;28;20425;-62
2021/08/30 10:05:20;;;;;;;13.57;12.27;;;18.50;99.90;;;;;;5028563;28;20997;-62
2021/08/30 10:07:47;;;;;;;12.27;11.17;;;18.30;99.90;;;;;;5028383;28;20433;-62
2021/08/30 10:10:17;;;;;;;13.30;12.03;;;18.10;99.90;;;;;;5028449;28;20424;-60
2021/08/30 10:12:43;;;;;;;12.70;11.60;;;17.90;99.90;;;;;;5028469;28;20802;-62
2021/08/30 10:15:10;;;;;;;13.37;12.23;;;17.60;99.90;;;;;;5028341;28;20494;-61
2021/08/30 10:17:43;;;;;;;13.80;12.37;;;17.40;99.90;;;;;;5027251;23;20592;-62
2021/08/30 10:20:19;;;;;;;14.87;13.57;;;17.20;99.90;;;;;;5008259;28;21136;-62
2021/08/30 10:23:11;;;;;;;14.93;13.53;;;17.20;99.90;;;;;;5008933;28;20422;-61
2021/08/30 10:25:40;;;;;;;14.20;12.80;;;17.60;99.90;;;;;;5005294;28;20425;-62
2021/08/30 10:28:12;;;;;;;13.33;12.13;;;18.40;99.90;;;;;;5008582;28;20491;-62
2021/08/30 10:30:50;;;;;;;13.20;12.07;;;18.90;99.90;;;;;;5008570;28;20531;-62
2021/08/30 10:33:16;;;;;;;14.37;13.10;;;19.40;99.90;;;;;;5011559;28;20842;-63
2021/08/30 10:35:41;;;;;;;14.30;11.27;;;20.40;99.90;;;;;;5012152;28;20492;-62
2021/08/30 10:38:15;;;;;;;13.57;12.37;;;20.50;99.90;;;;;;5012271;28;20398;-62
2021/08/30 10:40:42;;;;;;;11.77;10.67;;;20.20;99.90;;;;;;5012069;28;20178;-62
2021/08/30 10:43:15;;;;;;;15.33;12.77;;;19.50;99.90;;;;;;5012195;28;20454;-62
2021/08/30 10:45:43;;;;;;;14.07;12.73;;;18.90;99.90;;;;;;5012163;28;20798;-61
2021/08/30 10:48:15;;;;;;;13.97;12.70;;;18.60;99.90;;;;;;5011770;28;20481;-62
2021/08/30 10:50:47;;;;;;;14.03;12.83;;;18.30;99.90;;;;;;5011889;28;20517;-63
2021/08/30 10:53:19;;;;;;;12.83;11.67;;;18.20;99.90;;;;;;5012029;28;20430;-61
2021/08/30 10:55:47;;;;;;;12.87;11.67;;;18.30;99.90;;;;;;5011925;28;20942;-62
2021/08/30 10:58:22;;;;;;;11.87;10.77;;;18.60;99.90;;;;;;5011927;28;20461;-62
2021/08/30 11:00:50;;;;;;;12.40;11.30;;;18.90;99.90;;;;;;5011684;28;20837;-61
2021/08/30 11:03:33;;;;;;;11.50;10.50;;;19.00;99.90;;;;;;5011942;28;20421;-62
2021/08/30 11:06:19;;;;;;;13.67;12.47;;;18.70;99.90;;;;;;5011719;28;20437;-62
2021/08/30 11:08:45;;;;;;;14.07;12.73;;;18.50;99.90;;;;;;5010970;28;20991;-62
2021/08/30 11:11:15;;;;;;;16.73;14.20;;;18.10;99.90;;;;;;5011528;28;20449;-61
2021/08/30 11:13:43;;;;;;;12.77;11.57;;;18.00;99.90;;;;;;5012065;28;20171;-62
2021/08/30 11:16:20;;;;;;;14.80;12.87;;;17.70;99.90;;;;;;5011447;28;20432;-62
2021/08/30 11:19:15;;;;;;;15.57;14.20;;;17.30;99.90;;;;;;5011188;28;20822;-62
2021/08/30 11:21:47;;;;;;;13.50;12.30;;;17.10;99.90;;;;;;4998674;28;20436;-62
2021/08/30 11:24:28;;;;;;;13.23;11.93;;;16.90;99.90;;;;;;5011544;28;20425;-62
2021/08/30 11:27:16;;;;;;;14.63;13.23;;;16.90;99.90;;;;;;5011333;28;20413;-60
2021/08/30 11:29:45;;;;;;;14.90;13.40;;;17.30;99.90;;;;;;5010774;28;20418;-62
2021/08/30 11:32:11;;;;;;;12.63;11.37;;;17.80;99.90;;;;;;5011266;28;20509;-61
2021/08/30 11:34:38;;;;;;;13.23;12.13;;;18.20;99.90;;;;;;5009781;28;20429;-61
2021/08/30 11:37:06;;;;;;;12.20;11.20;;;18.30;99.90;;;;;;5010971;28;20473;-62
2021/08/30 11:39:34;;;;;;;11.23;10.40;;;18.20;99.90;;;;;;5010807;28;20468;-62
2021/08/30 11:42:06;;;;;;;10.60;9.80;;;18.10;99.90;;;;;;5011450;28;21275;-62
2021/08/30 11:44:34;;;;;;;13.33;10.57;;;18.20;99.90;;;;;;5010727;28;20942;-62
2021/08/30 11:47:02;;;;;;;10.47;9.57;;;18.50;99.90;;;;;;5011054;28;20441;-63
2021/08/30 11:49:29;;;;;;;11.37;10.17;;;19.10;99.90;;;;;;5010654;28;20426;-62
2021/08/30 11:51:59;;;;;;;10.00;9.10;;;19.70;99.90;;;;;;5010895;28;20425;-62
2021/08/30 11:54:31;;;;;;;11.93;10.83;;;20.30;99.90;;;;;;5010879;28;20454;-62
2021/08/30 11:57:04;;;;;;;11.20;10.20;;;19.90;99.90;;;;;;5010700;28;20425;-61
2021/08/30 11:59:33;;;;;;;11.93;10.93;;;19.80;99.90;;;;;;5010528;28;20464;-62
2021/08/30 12:01:59;;;;;;;11.20;10.23;;;19.60;99.90;;;;;;5010651;28;20907;-62
2021/08/30 12:04:30;;;;;;;13.73;11.27;;;19.40;99.90;;;;;;5011320;28;20942;-63
2021/08/30 12:07:00;;;;;;;12.60;11.40;;;19.20;99.90;;;;;;5011066;28;20920;-61
2021/08/30 12:09:40;;;;;;;12.93;11.63;;;19.20;99.90;;;;;;5010301;28;20499;-62
2021/08/30 12:12:15;;;;;;;14.93;11.67;;;19.00;99.90;;;;;;5010669;28;20815;-61
2021/08/30 12:14:41;;;;;;;11.90;10.90;;;18.90;99.90;;;;;;5010495;28;20417;-62
2021/08/30 12:17:06;;;;;;;12.47;11.37;;;18.90;99.90;;;;;;5010467;28;20472;-62
2021/08/30 12:19:32;;;;;;;13.10;11.80;;;18.70;99.90;;;;;;5010222;28;20215;-62
2021/08/30 12:21:58;;;;;;;11.90;10.83;;;18.70;99.90;;;;;;5010169;28;20262;-62
2021/08/30 12:24:24;;;;;;;12.47;11.43;;;18.80;99.90;;;;;;5010387;28;20174;-62
2021/08/30 12:26:51;;;;;;;12.00;10.83;;;18.90;99.90;;;;;;5008917;28;20433;-62
2021/08/30 12:29:18;;;;;;;13.37;12.10;;;19.10;99.90;;;;;;5010123;28;20826;-62
2021/08/30 12:31:51;;;;;;;14.33;11.30;;;19.20;99.90;;;;;;5010230;28;20831;-62
2021/08/30 12:34:21;;;;;;;11.43;10.43;;;19.30;99.90;;;;;;5010019;28;20441;-62
2021/08/30 12:36:48;;;;;;;11.40;10.30;;;19.30;99.90;;;;;;5010345;28;21084;-62
2021/08/30 12:39:14;;;;;;;11.10;10.20;;;19.20;99.90;;;;;;5009729;28;20786;-62
2021/08/30 12:41:40;;;;;;;12.13;10.90;;;19.20;99.90;;;;;;5010157;28;20873;-62